sensor_id;sensor_type;location;lat;lon;timestamp;pressure;altitude;pressure_sealevel;temperature;humidity
46710;BME280;32442;51.514;-0.178;2022-08-01T00:00:00;101617.22;;;23.86;59.21
46710;BME280;32442;51.514;-0.178;2022-08-01T00:02:29;101611.19;;;23.79;59.51
46710;BME280;32442;51.514;-0.178;2022-08-01T00:04:58;101608.16;;;23.75;59.75
46710;BME280;32442;51.514;-0.178;2022-08-01T00:07:26;101618.50;;;23.80;59.67
46710;BME280;32442;51.514;-0.178;2022-08-01T00:09:53;101610.34;;;23.78;59.49
46710;BME280;32442;51.514;-0.178;2022-08-01T00:12:20;101599.56;;;23.80;59.52
46710;BME280;32442;51.514;-0.178;2022-08-01T00:14:47;101612.72;;;23.85;59.42
46710;BME280;32442;51.514;-0.178;2022-08-01T00:17:14;101609.28;;;23.88;59.13
46710;BME280;32442;51.514;-0.178;2022-08-01T00:19:41;101608.56;;;23.82;59.37
46710;BME280;32442;51.514;-0.178;2022-08-01T00:22:08;101606.88;;;23.81;59.20
46710;BME280;32442;51.514;-0.178;2022-08-01T00:24:35;101610.03;;;23.80;59.05
46710;BME280;32442;51.514;-0.178;2022-08-01T00:27:02;101602.72;;;23.79;59.23
46710;BME280;32442;51.514;-0.178;2022-08-01T00:29:29;101596.97;;;23.70;59.43
46710;BME280;32442;51.514;-0.178;2022-08-01T00:32:16;101591.84;;;23.72;59.41
46710;BME280;32442;51.514;-0.178;2022-08-01T00:34:43;101599.47;;;23.72;59.21
46710;BME280;32442;51.514;-0.178;2022-08-01T00:37:10;101604.38;;;23.80;58.96
46710;BME280;32442;51.514;-0.178;2022-08-01T00:39:41;101602.25;;;23.85;58.80
46710;BME280;32442;51.514;-0.178;2022-08-01T00:42:09;101610.34;;;23.78;58.71
46710;BME280;32442;51.514;-0.178;2022-08-01T00:44:36;101607.31;;;23.75;59.26
46710;BME280;32442;51.514;-0.178;2022-08-01T00:47:03;101602.91;;;23.69;59.51
46710;BME280;32442;51.514;-0.178;2022-08-01T00:49:30;101602.16;;;23.77;58.63
46710;BME280;32442;51.514;-0.178;2022-08-01T00:51:58;101610.44;;;23.73;58.67
46710;BME280;32442;51.514;-0.178;2022-08-01T00:54:25;101607.41;;;23.70;59.06
46710;BME280;32442;51.514;-0.178;2022-08-01T00:56:53;101599.25;;;23.68;58.68
46710;BME280;32442;51.514;-0.178;2022-08-01T00:59:21;101605.44;;;23.70;58.41
46710;BME280;32442;51.514;-0.178;2022-08-01T01:01:51;101595.94;;;23.66;58.82
46710;BME280;32442;51.514;-0.178;2022-08-01T01:04:19;101597.28;;;23.69;58.51
46710;BME280;32442;51.514;-0.178;2022-08-01T01:06:54;101607.22;;;23.66;58.04
46710;BME280;32442;51.514;-0.178;2022-08-01T01:11:57;101618.16;;;23.68;58.14
46710;BME280;32442;51.514;-0.178;2022-08-01T01:17:03;101626.13;;;23.66;58.00
46710;BME280;32442;51.514;-0.178;2022-08-01T01:19:33;101622.13;;;23.67;57.88
46710;BME280;32442;51.514;-0.178;2022-08-01T01:24:46;101619.44;;;23.62;58.17
46710;BME280;32442;51.514;-0.178;2022-08-01T01:29:46;101626.13;;;23.66;58.26
46710;BME280;32442;51.514;-0.178;2022-08-01T01:34:56;101624.34;;;23.70;58.37
46710;BME280;32442;51.514;-0.178;2022-08-01T01:37:24;101629.03;;;23.61;58.54
46710;BME280;32442;51.514;-0.178;2022-08-01T01:39:53;101625.09;;;23.62;58.66
46710;BME280;32442;51.514;-0.178;2022-08-01T01:42:21;101638.84;;;23.63;58.37
46710;BME280;32442;51.514;-0.178;2022-08-01T01:44:51;101628.84;;;23.71;58.39
46710;BME280;32442;51.514;-0.178;2022-08-01T01:47:19;101625.09;;;23.62;58.48
46710;BME280;32442;51.514;-0.178;2022-08-01T01:49:46;101622.56;;;23.60;58.95
46710;BME280;32442;51.514;-0.178;2022-08-01T01:52:15;101618.06;;;23.59;58.73
46710;BME280;32442;51.514;-0.178;2022-08-01T01:54:44;101624.53;;;23.73;58.29
46710;BME280;32442;51.514;-0.178;2022-08-01T01:57:12;101622.56;;;23.60;58.68
46710;BME280;32442;51.514;-0.178;2022-08-01T01:59:41;101619.00;;;23.55;58.94
46710;BME280;32442;51.514;-0.178;2022-08-01T02:02:08;101612.72;;;23.58;58.81
46710;BME280;32442;51.514;-0.178;2022-08-01T02:04:38;101618.25;;;23.63;58.75
46710;BME280;32442;51.514;-0.178;2022-08-01T02:07:06;101617.31;;;23.54;58.63
46710;BME280;32442;51.514;-0.178;2022-08-01T02:09:35;101616.47;;;23.53;58.78
46710;BME280;32442;51.514;-0.178;2022-08-01T02:12:04;101616.19;;;23.55;58.58
46710;BME280;32442;51.514;-0.178;2022-08-01T02:14:34;101615.25;;;23.59;58.78
46710;BME280;32442;51.514;-0.178;2022-08-01T02:17:04;101615.03;;;23.56;58.52
46710;BME280;32442;51.514;-0.178;2022-08-01T02:19:34;101609.69;;;23.54;58.88
46710;BME280;32442;51.514;-0.178;2022-08-01T02:24:54;101615.03;;;23.56;58.66
46710;BME280;32442;51.514;-0.178;2022-08-01T02:27:24;101610.97;;;23.62;58.49
46710;BME280;32442;51.514;-0.178;2022-08-01T02:29:58;101616.72;;;23.57;58.72
46710;BME280;32442;51.514;-0.178;2022-08-01T02:32:26;101606.69;;;23.51;58.59
46710;BME280;32442;51.514;-0.178;2022-08-01T02:34:54;101599.16;;;23.46;58.74
46710;BME280;32442;51.514;-0.178;2022-08-01T02:37:22;101600.94;;;23.56;58.68
46710;BME280;32442;51.514;-0.178;2022-08-01T02:39:52;101598.84;;;23.47;58.76
46710;BME280;32442;51.514;-0.178;2022-08-01T02:42:20;101594.84;;;23.48;58.73
46710;BME280;32442;51.514;-0.178;2022-08-01T02:44:50;101594.97;;;23.43;59.07
46710;BME280;32442;51.514;-0.178;2022-08-01T02:47:19;101592.97;;;23.44;59.28
46710;BME280;32442;51.514;-0.178;2022-08-01T02:49:48;101592.44;;;23.42;58.78
46710;BME280;32442;51.514;-0.178;2022-08-01T02:52:20;101590.91;;;23.49;58.63
46710;BME280;32442;51.514;-0.178;2022-08-01T02:54:48;101588.28;;;23.53;58.77
46710;BME280;32442;51.514;-0.178;2022-08-01T02:57:16;101579.41;;;23.46;58.67
46710;BME280;32442;51.514;-0.178;2022-08-01T02:59:46;101586.19;;;23.45;59.07
46710;BME280;32442;51.514;-0.178;2022-08-01T03:02:14;101588.28;;;23.53;58.41
46710;BME280;32442;51.514;-0.178;2022-08-01T03:04:43;101588.72;;;23.46;58.69
46710;BME280;32442;51.514;-0.178;2022-08-01T03:07:11;101582.00;;;23.42;58.58
46710;BME280;32442;51.514;-0.178;2022-08-01T03:09:40;101587.09;;;23.40;58.57
46710;BME280;32442;51.514;-0.178;2022-08-01T03:12:14;101583.97;;;23.42;58.94
46710;BME280;32442;51.514;-0.178;2022-08-01T03:14:42;101590.47;;;23.42;58.66
46710;BME280;32442;51.514;-0.178;2022-08-01T03:17:09;101587.34;;;23.44;58.50
46710;BME280;32442;51.514;-0.178;2022-08-01T03:19:38;101584.28;;;23.40;58.83
46710;BME280;32442;51.514;-0.178;2022-08-01T03:22:09;101587.19;;;23.35;58.61
46710;BME280;32442;51.514;-0.178;2022-08-01T03:24:38;101584.38;;;23.35;58.68
46710;BME280;32442;51.514;-0.178;2022-08-01T03:27:05;101588.88;;;23.36;58.99
46710;BME280;32442;51.514;-0.178;2022-08-01T03:29:34;101597.34;;;23.36;58.78
46710;BME280;32442;51.514;-0.178;2022-08-01T03:32:00;101596.09;;;23.42;58.49
46710;BME280;32442;51.514;-0.178;2022-08-01T03:34:28;101601.63;;;23.34;58.88
46710;BME280;32442;51.514;-0.178;2022-08-01T03:36:56;101602.66;;;23.38;58.46
46710;BME280;32442;51.514;-0.178;2022-08-01T03:39:34;101596.00;;;23.34;59.00
46710;BME280;32442;51.514;-0.178;2022-08-01T03:42:07;101604.25;;;23.30;59.03
46710;BME280;32442;51.514;-0.178;2022-08-01T03:44:36;101600.69;;;23.25;59.16
46710;BME280;32442;51.514;-0.178;2022-08-01T03:47:09;101599.53;;;23.26;59.19
46710;BME280;32442;51.514;-0.178;2022-08-01T03:49:40;101604.00;;;23.27;59.06
46710;BME280;32442;51.514;-0.178;2022-08-01T03:52:08;101596.59;;;23.31;58.94
46710;BME280;32442;51.514;-0.178;2022-08-01T03:54:36;101600.03;;;23.28;58.87
46710;BME280;32442;51.514;-0.178;2022-08-01T03:57:04;101600.88;;;23.28;58.77
46710;BME280;32442;51.514;-0.178;2022-08-01T03:59:55;101598.69;;;23.25;59.23
46710;BME280;32442;51.514;-0.178;2022-08-01T04:02:22;101607.28;;;23.34;58.92
46710;BME280;32442;51.514;-0.178;2022-08-01T04:04:49;101602.03;;;23.27;58.68
46710;BME280;32442;51.514;-0.178;2022-08-01T04:07:23;101600.25;;;23.31;58.66
46710;BME280;32442;51.514;-0.178;2022-08-01T04:09:50;101597.03;;;23.38;58.49
46710;BME280;32442;51.514;-0.178;2022-08-01T04:12:18;101605.19;;;23.26;58.62
46710;BME280;32442;51.514;-0.178;2022-08-01T04:14:44;101591.16;;;23.21;58.97
46710;BME280;32442;51.514;-0.178;2022-08-01T04:17:11;101588.56;;;23.24;59.01
46710;BME280;32442;51.514;-0.178;2022-08-01T04:19:38;101584.69;;;23.20;59.06
46710;BME280;32442;51.514;-0.178;2022-08-01T04:22:07;101593.25;;;23.15;58.88
46710;BME280;32442;51.514;-0.178;2022-08-01T04:24:41;101594.09;;;23.16;59.12
46710;BME280;32442;51.514;-0.178;2022-08-01T04:27:11;101596.81;;;23.21;59.01
46710;BME280;32442;51.514;-0.178;2022-08-01T04:29:40;101591.69;;;23.23;59.09
46710;BME280;32442;51.514;-0.178;2022-08-01T04:32:08;101591.16;;;23.21;58.90
46710;BME280;32442;51.514;-0.178;2022-08-01T04:34:38;101591.78;;;23.18;59.07
46710;BME280;32442;51.514;-0.178;2022-08-01T04:37:09;101585.00;;;23.19;58.82
46710;BME280;32442;51.514;-0.178;2022-08-01T04:39:44;101592.00;;;23.21;59.16
46710;BME280;32442;51.514;-0.178;2022-08-01T04:42:16;101598.03;;;23.15;58.82
46710;BME280;32442;51.514;-0.178;2022-08-01T04:44:58;101598.78;;;23.20;59.17
46710;BME280;32442;51.514;-0.178;2022-08-01T04:47:25;101606.53;;;23.28;58.90
46710;BME280;32442;51.514;-0.178;2022-08-01T04:49:52;101604.53;;;23.15;58.93
46710;BME280;32442;51.514;-0.178;2022-08-01T04:52:20;101608.47;;;23.14;59.39
46710;BME280;32442;51.514;-0.178;2022-08-01T04:54:50;101611.59;;;23.13;58.95
46710;BME280;32442;51.514;-0.178;2022-08-01T04:57:17;101607.53;;;23.05;59.75
46710;BME280;32442;51.514;-0.178;2022-08-01T04:59:43;101611.50;;;23.18;59.15
46710;BME280;32442;51.514;-0.178;2022-08-01T05:02:11;101614.75;;;23.11;59.03
46710;BME280;32442;51.514;-0.178;2022-08-01T05:04:39;101620.59;;;23.15;59.14
46710;BME280;32442;51.514;-0.178;2022-08-01T05:07:07;101619.47;;;23.16;59.21
46710;BME280;32442;51.514;-0.178;2022-08-01T05:09:36;101627.09;;;23.29;58.57
46710;BME280;32442;51.514;-0.178;2022-08-01T05:12:04;101622.81;;;23.31;58.45
46710;BME280;32442;51.514;-0.178;2022-08-01T05:14:32;101632.94;;;23.32;58.64
46710;BME280;32442;51.514;-0.178;2022-08-01T05:17:04;101632.72;;;23.15;58.84
46710;BME280;32442;51.514;-0.178;2022-08-01T05:19:31;101631.97;;;23.10;59.23
46710;BME280;32442;51.514;-0.178;2022-08-01T05:21:58;101637.31;;;23.11;59.33
46710;BME280;32442;51.514;-0.178;2022-08-01T05:24:27;101637.31;;;23.11;59.34
46710;BME280;32442;51.514;-0.178;2022-08-01T05:26:56;101637.34;;;23.25;58.63
46710;BME280;32442;51.514;-0.178;2022-08-01T05:29:36;101626.31;;;23.10;59.28
46710;BME280;32442;51.514;-0.178;2022-08-01T05:32:09;101630.53;;;23.12;59.02
46710;BME280;32442;51.514;-0.178;2022-08-01T05:34:36;101632.72;;;23.15;59.13
46710;BME280;32442;51.514;-0.178;2022-08-01T05:37:05;101630.56;;;23.26;58.45
46710;BME280;32442;51.514;-0.178;2022-08-01T05:39:33;101629.16;;;23.10;59.49
46710;BME280;32442;51.514;-0.178;2022-08-01T05:42:00;101629.16;;;23.23;58.72
46710;BME280;32442;51.514;-0.178;2022-08-01T05:44:27;101630.84;;;23.24;58.79
46710;BME280;32442;51.514;-0.178;2022-08-01T05:46:53;101628.22;;;23.14;58.96
46710;BME280;32442;51.514;-0.178;2022-08-01T05:49:20;101631.44;;;23.08;59.32
46710;BME280;32442;51.514;-0.178;2022-08-01T05:51:47;101633.53;;;23.02;59.27
46710;BME280;32442;51.514;-0.178;2022-08-01T05:54:14;101641.03;;;23.07;59.71
46710;BME280;32442;51.514;-0.178;2022-08-01T05:56:40;101633.81;;;23.00;59.70
46710;BME280;32442;51.514;-0.178;2022-08-01T05:59:07;101641.34;;;23.05;59.44
46710;BME280;32442;51.514;-0.178;2022-08-01T06:01:34;101632.25;;;23.08;59.63
46710;BME280;32442;51.514;-0.178;2022-08-01T06:04:00;101646.47;;;23.03;59.55
46710;BME280;32442;51.514;-0.178;2022-08-01T06:06:27;101639.28;;;23.11;59.47
46710;BME280;32442;51.514;-0.178;2022-08-01T06:08:54;101648.56;;;23.11;59.22
46710;BME280;32442;51.514;-0.178;2022-08-01T06:11:20;101644.72;;;23.07;59.47
46710;BME280;32442;51.514;-0.178;2022-08-01T06:13:47;101637.59;;;23.10;59.48
46710;BME280;32442;51.514;-0.178;2022-08-01T06:16:14;101641.78;;;23.12;59.35
46710;BME280;32442;51.514;-0.178;2022-08-01T06:18:41;101634.78;;;23.10;59.73
46710;BME280;32442;51.514;-0.178;2022-08-01T06:21:08;101636.84;;;23.04;59.91
46710;BME280;32442;51.514;-0.178;2022-08-01T06:23:34;101639.16;;;23.02;59.74
46710;BME280;32442;51.514;-0.178;2022-08-01T06:26:01;101627.78;;;23.07;59.68
46710;BME280;32442;51.514;-0.178;2022-08-01T06:28:28;101633.53;;;23.02;60.01
46710;BME280;32442;51.514;-0.178;2022-08-01T06:30:55;101636.53;;;23.05;59.66
46710;BME280;32442;51.514;-0.178;2022-08-01T06:33:22;101641.88;;;23.07;59.62
46710;BME280;32442;51.514;-0.178;2022-08-01T06:35:49;101634.78;;;23.10;59.72
46710;BME280;32442;51.514;-0.178;2022-08-01T06:38:16;101643.25;;;23.10;59.49
46710;BME280;32442;51.514;-0.178;2022-08-01T06:40:43;101643.31;;;23.04;59.95
46710;BME280;32442;51.514;-0.178;2022-08-01T06:43:09;101633.94;;;23.09;59.77
46710;BME280;32442;51.514;-0.178;2022-08-01T06:45:38;101645.22;;;23.09;59.85
46710;BME280;32442;51.514;-0.178;2022-08-01T06:48:05;101640.97;;;23.12;59.79
46710;BME280;32442;51.514;-0.178;2022-08-01T06:50:32;101649.94;;;23.14;59.64
46710;BME280;32442;51.514;-0.178;2022-08-01T06:52:58;101640.63;;;23.13;59.65
46710;BME280;32442;51.514;-0.178;2022-08-01T06:55:25;101650.34;;;23.07;59.50
46710;BME280;32442;51.514;-0.178;2022-08-01T06:57:52;101644.16;;;23.05;59.91
46710;BME280;32442;51.514;-0.178;2022-08-01T07:00:22;101655.72;;;23.03;60.09
46710;BME280;32442;51.514;-0.178;2022-08-01T07:02:53;101659.72;;;23.02;60.22
46710;BME280;32442;51.514;-0.178;2022-08-01T07:05:20;101658.81;;;23.07;60.02
46710;BME280;32442;51.514;-0.178;2022-08-01T07:07:47;101650.34;;;23.07;60.18
46710;BME280;32442;51.514;-0.178;2022-08-01T07:10:14;101657.03;;;23.11;60.02
46710;BME280;32442;51.514;-0.178;2022-08-01T07:12:41;101649.16;;;23.08;59.96
46710;BME280;32442;51.514;-0.178;2022-08-01T07:15:08;101651.47;;;23.06;59.88
46710;BME280;32442;51.514;-0.178;2022-08-01T07:17:38;101655.97;;;23.07;59.74
46710;BME280;32442;51.514;-0.178;2022-08-01T07:20:09;101649.53;;;23.20;59.84
46710;BME280;32442;51.514;-0.178;2022-08-01T07:22:36;101656.50;;;23.09;59.93
46710;BME280;32442;51.514;-0.178;2022-08-01T07:25:04;101659.34;;;23.23;59.56
46710;BME280;32442;51.514;-0.178;2022-08-01T07:27:34;101665.16;;;23.13;59.71
46710;BME280;32442;51.514;-0.178;2022-08-01T07:30:01;101657.53;;;23.13;59.83
46710;BME280;32442;51.514;-0.178;2022-08-01T07:32:28;101665.16;;;23.13;60.05
46710;BME280;32442;51.514;-0.178;2022-08-01T07:34:55;101664.88;;;23.14;60.11
46710;BME280;32442;51.514;-0.178;2022-08-01T07:37:22;101662.97;;;23.10;59.75
46710;BME280;32442;51.514;-0.178;2022-08-01T07:40:10;101672.94;;;23.21;59.44
46710;BME280;32442;51.514;-0.178;2022-08-01T07:42:37;101666.47;;;23.20;59.27
46710;BME280;32442;51.514;-0.178;2022-08-01T07:45:04;101666.53;;;23.15;59.69
46710;BME280;32442;51.514;-0.178;2022-08-01T07:47:31;101676.13;;;23.14;59.58
46710;BME280;32442;51.514;-0.178;2022-08-01T07:50:01;101673.41;;;23.09;60.25
46710;BME280;32442;51.514;-0.178;2022-08-01T07:52:28;101677.06;;;23.10;59.83
46710;BME280;32442;51.514;-0.178;2022-08-01T07:54:56;101668.91;;;23.08;59.86
46710;BME280;32442;51.514;-0.178;2022-08-01T07:57:23;101672.59;;;23.22;59.62
46710;BME280;32442;51.514;-0.178;2022-08-01T07:59:50;101676.34;;;23.18;59.73
46710;BME280;32442;51.514;-0.178;2022-08-01T08:02:17;101681.69;;;23.19;59.97
46710;BME280;32442;51.514;-0.178;2022-08-01T08:04:44;101676.13;;;23.14;59.92
46710;BME280;32442;51.514;-0.178;2022-08-01T08:07:14;101677.53;;;23.17;59.77
46710;BME280;32442;51.514;-0.178;2022-08-01T08:09:41;101672.19;;;23.15;59.68
46710;BME280;32442;51.514;-0.178;2022-08-01T08:12:08;101677.06;;;23.10;60.24
46710;BME280;32442;51.514;-0.178;2022-08-01T08:14:35;101683.66;;;23.19;59.81
46710;BME280;32442;51.514;-0.178;2022-08-01T08:17:08;101687.41;;;23.14;60.04
46710;BME280;32442;51.514;-0.178;2022-08-01T08:19:35;101686.19;;;23.20;59.63
46710;BME280;32442;51.514;-0.178;2022-08-01T08:22:05;101690.28;;;23.28;59.65
46710;BME280;32442;51.514;-0.178;2022-08-01T08:24:33;101686.19;;;23.20;59.80
46710;BME280;32442;51.514;-0.178;2022-08-01T08:27:05;101681.69;;;23.19;60.09
46710;BME280;32442;51.514;-0.178;2022-08-01T08:29:34;101689.00;;;23.20;59.88
46710;BME280;32442;51.514;-0.178;2022-08-01T08:32:01;101687.25;;;23.24;59.85
46710;BME280;32442;51.514;-0.178;2022-08-01T08:34:28;101692.03;;;23.24;59.83
46710;BME280;32442;51.514;-0.178;2022-08-01T08:36:55;101684.44;;;23.24;59.82
46710;BME280;32442;51.514;-0.178;2022-08-01T08:39:29;101677.72;;;23.20;59.73
46710;BME280;32442;51.514;-0.178;2022-08-01T08:42:07;101684.22;;;23.21;59.87
46710;BME280;32442;51.514;-0.178;2022-08-01T08:44:34;101681.06;;;23.22;59.96
46710;BME280;32442;51.514;-0.178;2022-08-01T08:47:07;101688.00;;;23.30;59.80
46710;BME280;32442;51.514;-0.178;2022-08-01T08:49:44;101685.19;;;23.30;59.38
46710;BME280;32442;51.514;-0.178;2022-08-01T08:52:14;101679.97;;;23.37;59.22
46710;BME280;32442;51.514;-0.178;2022-08-01T08:54:41;101671.78;;;23.35;59.22
46710;BME280;32442;51.514;-0.178;2022-08-01T08:57:09;101673.47;;;23.36;59.33
46710;BME280;32442;51.514;-0.178;2022-08-01T08:59:37;101670.88;;;23.40;59.11
46710;BME280;32442;51.514;-0.178;2022-08-01T09:02:04;101672.34;;;23.37;59.00
46710;BME280;32442;51.514;-0.178;2022-08-01T09:04:33;101676.84;;;23.38;58.94
46710;BME280;32442;51.514;-0.178;2022-08-01T09:07:06;101671.72;;;23.40;58.95
46710;BME280;32442;51.514;-0.178;2022-08-01T09:09:33;101680.09;;;23.45;58.90
46710;BME280;32442;51.514;-0.178;2022-08-01T09:12:06;101668.00;;;23.45;58.64
46710;BME280;32442;51.514;-0.178;2022-08-01T09:14:33;101673.47;;;23.36;58.76
46710;BME280;32442;51.514;-0.178;2022-08-01T09:17:06;101677.88;;;23.42;59.14
46710;BME280;32442;51.514;-0.178;2022-08-01T09:19:51;101672.34;;;23.37;59.00
46710;BME280;32442;51.514;-0.178;2022-08-01T09:22:21;101675.25;;;23.32;59.19
46710;BME280;32442;51.514;-0.178;2022-08-01T09:27:45;101688.22;;;23.33;59.18
46710;BME280;32442;51.514;-0.178;2022-08-01T09:30:16;101684.31;;;23.48;58.52
46710;BME280;32442;51.514;-0.178;2022-08-01T09:32:58;101686.44;;;23.37;58.84
46710;BME280;32442;51.514;-0.178;2022-08-01T09:35:36;101678.81;;;23.38;58.44
46710;BME280;32442;51.514;-0.178;2022-08-01T09:38:12;101685.91;;;23.35;58.92
46710;BME280;32442;51.514;-0.178;2022-08-01T09:43:12;101693.84;;;23.33;58.85
46710;BME280;32442;51.514;-0.178;2022-08-01T09:45:40;101685.81;;;23.40;57.69
46710;BME280;32442;51.514;-0.178;2022-08-01T09:48:14;101684.13;;;23.39;58.36
46710;BME280;32442;51.514;-0.178;2022-08-01T09:50:43;101690.94;;;23.38;57.93
46710;BME280;32442;51.514;-0.178;2022-08-01T09:53:10;101692.28;;;23.41;57.67
46710;BME280;32442;51.514;-0.178;2022-08-01T09:56:01;101695.94;;;23.41;57.72
46710;BME280;32442;51.514;-0.178;2022-08-01T09:58:47;101685.22;;;23.43;57.60
46710;BME280;32442;51.514;-0.178;2022-08-01T10:01:19;101684.31;;;23.48;56.93
46710;BME280;32442;51.514;-0.178;2022-08-01T10:04:03;101681.78;;;23.46;56.47
46710;BME280;32442;51.514;-0.178;2022-08-01T10:06:30;101682.22;;;23.54;55.76
46710;BME280;32442;51.514;-0.178;2022-08-01T10:08:59;101677.75;;;23.53;55.73
46710;BME280;32442;51.514;-0.178;2022-08-01T10:11:29;101689.03;;;23.53;56.06
46710;BME280;32442;51.514;-0.178;2022-08-01T10:14:01;101689.41;;;23.46;56.38
46710;BME280;32442;51.514;-0.178;2022-08-01T10:16:28;101689.13;;;23.47;55.61
46710;BME280;32442;51.514;-0.178;2022-08-01T10:18:56;101691.31;;;23.51;55.48
46710;BME280;32442;51.514;-0.178;2022-08-01T10:21:23;101689.63;;;23.49;56.00
46710;BME280;32442;51.514;-0.178;2022-08-01T10:24:12;101689.03;;;23.53;56.28
46710;BME280;32442;51.514;-0.178;2022-08-01T10:26:44;101684.34;;;23.62;55.27
46710;BME280;32442;51.514;-0.178;2022-08-01T10:29:15;101673.97;;;23.57;55.62
46710;BME280;32442;51.514;-0.178;2022-08-01T10:32:04;101686.91;;;23.58;55.71
46710;BME280;32442;51.514;-0.178;2022-08-01T10:34:33;101678.78;;;23.57;56.24
46710;BME280;32442;51.514;-0.178;2022-08-01T10:37:05;101672.72;;;23.63;55.05
46710;BME280;32442;51.514;-0.178;2022-08-01T10:39:36;101675.22;;;23.65;55.95
46710;BME280;32442;51.514;-0.178;2022-08-01T10:42:03;101681.72;;;23.65;56.03
46710;BME280;32442;51.514;-0.178;2022-08-01T10:44:36;101679.19;;;23.64;55.53
46710;BME280;32442;51.514;-0.178;2022-08-01T10:47:09;101674.09;;;23.66;55.81
46710;BME280;32442;51.514;-0.178;2022-08-01T10:49:43;101673.75;;;23.67;55.91
46710;BME280;32442;51.514;-0.178;2022-08-01T10:52:15;101667.81;;;23.69;55.68
46710;BME280;32442;51.514;-0.178;2022-08-01T10:54:44;101669.91;;;23.77;55.15
46710;BME280;32442;51.514;-0.178;2022-08-01T10:57:18;101664.59;;;23.75;55.17
46710;BME280;32442;51.514;-0.178;2022-08-01T10:59:52;101661.78;;;23.75;55.50
46710;BME280;32442;51.514;-0.178;2022-08-01T11:05:01;101667.72;;;23.74;55.78
46710;BME280;32442;51.514;-0.178;2022-08-01T11:08:05;101667.72;;;23.74;56.18
46710;BME280;32442;51.514;-0.178;2022-08-01T11:10:33;101664.91;;;23.74;55.30
46710;BME280;32442;51.514;-0.178;2022-08-01T11:13:05;101652.88;;;23.82;54.70
46710;BME280;32442;51.514;-0.178;2022-08-01T11:15:34;101652.97;;;23.77;55.40
46710;BME280;32442;51.514;-0.178;2022-08-01T11:20:56;101645.88;;;23.79;54.58
46710;BME280;32442;51.514;-0.178;2022-08-01T11:23:47;101660.69;;;23.85;54.59
46710;BME280;32442;51.514;-0.178;2022-08-01T11:26:16;101649.41;;;23.85;54.03
46710;BME280;32442;51.514;-0.178;2022-08-01T11:28:43;101647.75;;;23.84;54.23
46710;BME280;32442;51.514;-0.178;2022-08-01T11:31:32;101643.25;;;23.83;54.52
46710;BME280;32442;51.514;-0.178;2022-08-01T11:34:03;101639.78;;;23.86;54.94
46710;BME280;32442;51.514;-0.178;2022-08-01T11:36:30;101633.00;;;23.87;54.94
46710;BME280;32442;51.514;-0.178;2022-08-01T11:39:17;101635.84;;;23.87;55.60
46710;BME280;32442;51.514;-0.178;2022-08-01T11:41:45;101630.09;;;23.92;55.11
46710;BME280;32442;51.514;-0.178;2022-08-01T11:52:18;101635.50;;;24.02;53.02
46710;BME280;32442;51.514;-0.178;2022-08-01T11:54:47;101622.25;;;24.03;52.56
46710;BME280;32442;51.514;-0.178;2022-08-01T11:57:17;101627.88;;;24.03;52.93
46710;BME280;32442;51.514;-0.178;2022-08-01T11:59:52;101638.00;;;24.04;53.36
46710;BME280;32442;51.514;-0.178;2022-08-01T12:02:32;101630.91;;;24.06;52.48
46710;BME280;32442;51.514;-0.178;2022-08-01T12:05:07;101624.63;;;24.09;53.13
46710;BME280;32442;51.514;-0.178;2022-08-01T12:07:37;101626.28;;;24.10;53.75
46710;BME280;32442;51.514;-0.178;2022-08-01T12:12:32;101631.00;;;24.15;52.83
46710;BME280;32442;51.514;-0.178;2022-08-01T12:15:03;101626.72;;;24.17;52.85
46710;BME280;32442;51.514;-0.178;2022-08-01T12:17:34;101626.41;;;24.19;51.90
46710;BME280;32442;51.514;-0.178;2022-08-01T12:20:02;101619.63;;;24.20;52.66
46710;BME280;32442;51.514;-0.178;2022-08-01T12:22:29;101610.00;;;24.21;52.67
46710;BME280;32442;51.514;-0.178;2022-08-01T12:24:55;101601.53;;;24.21;52.79
46710;BME280;32442;51.514;-0.178;2022-08-01T12:27:30;101608.31;;;24.20;53.03
46710;BME280;32442;51.514;-0.178;2022-08-01T12:29:58;101606.34;;;24.20;52.50
46710;BME280;32442;51.514;-0.178;2022-08-01T12:35:11;101600.69;;;24.20;53.33
46710;BME280;32442;51.514;-0.178;2022-08-01T12:37:47;101602.88;;;24.23;53.12
46710;BME280;32442;51.514;-0.178;2022-08-01T12:40:18;101593.88;;;24.21;52.59
46710;BME280;32442;51.514;-0.178;2022-08-01T12:42:47;101594.09;;;24.25;52.90
46710;BME280;32442;51.514;-0.178;2022-08-01T12:45:27;101583.28;;;24.27;52.82
46710;BME280;32442;51.514;-0.178;2022-08-01T12:47:54;101589.28;;;24.25;53.19
46710;BME280;32442;51.514;-0.178;2022-08-01T12:50:24;101587.78;;;24.28;52.52
46710;BME280;32442;51.514;-0.178;2022-08-01T12:52:51;101584.31;;;24.31;52.61
46710;BME280;32442;51.514;-0.178;2022-08-01T12:55:19;101576.69;;;24.31;52.78
46710;BME280;32442;51.514;-0.178;2022-08-01T12:57:50;101586.53;;;24.34;52.44
46710;BME280;32442;51.514;-0.178;2022-08-01T13:02:46;101582.75;;;24.39;52.00
46710;BME280;32442;51.514;-0.178;2022-08-01T13:05:13;101574.59;;;24.37;52.17
46710;BME280;32442;51.514;-0.178;2022-08-01T13:10:11;101578.13;;;24.43;51.94
46710;BME280;32442;51.514;-0.178;2022-08-01T13:12:39;101578.44;;;24.41;52.00
46710;BME280;32442;51.514;-0.178;2022-08-01T13:17:52;101573.50;;;24.47;51.99
46710;BME280;32442;51.514;-0.178;2022-08-01T13:20:25;101570.88;;;24.50;51.58
46710;BME280;32442;51.514;-0.178;2022-08-01T13:22:52;101572.53;;;24.51;51.89
46710;BME280;32442;51.514;-0.178;2022-08-01T13:25:19;101567.38;;;24.53;51.75
46710;BME280;32442;51.514;-0.178;2022-08-01T13:27:49;101573.25;;;24.57;51.65
46710;BME280;32442;51.514;-0.178;2022-08-01T13:30:35;101562.06;;;24.52;52.44
46710;BME280;32442;51.514;-0.178;2022-08-01T13:33:02;101568.22;;;24.54;51.79
46710;BME280;32442;51.514;-0.178;2022-08-01T13:35:29;101569.41;;;24.53;51.94
46710;BME280;32442;51.514;-0.178;2022-08-01T13:37:56;101573.88;;;24.54;52.38
46710;BME280;32442;51.514;-0.178;2022-08-01T13:40:24;101558.59;;;24.55;51.53